createdAt,value
2022-12-24T00:00:29.466Z,98.60
2022-12-24T00:05:33.657Z,88.87
2022-12-24T00:10:46.253Z,86.30
2022-12-24T00:15:55.351Z,87.20
2022-12-24T00:21:01.878Z,84.10
2022-12-24T00:26:13.292Z,93.20
2022-12-24T00:31:18.197Z,96.17
2022-12-24T00:36:20.470Z,81.33
2022-12-24T00:41:25.122Z,84.10
2022-12-24T00:46:36.023Z,97.67
2022-12-24T00:51:37.864Z,90.20
2022-12-24T00:56:41.653Z,83.53
2022-12-24T01:01:46.062Z,89.83
2022-12-24T01:06:47.807Z,91.40
2022-12-24T01:11:51.876Z,94.63
2022-12-24T01:16:58.565Z,83.53
2022-12-24T01:22:05.278Z,93.73
2022-12-24T01:27:07.017Z,92.17
2022-12-24T01:32:08.928Z,81.30
2022-12-24T01:37:10.951Z,79.33
2022-12-24T01:42:38.435Z,91.13
2022-12-24T01:47:40.266Z,84.43
2022-12-24T01:52:46.080Z,93.77
2022-12-24T01:57:56.945Z,82.43
2022-12-24T02:03:04.425Z,89.67
2022-12-24T02:08:07.909Z,86.53
2022-12-24T02:13:22.506Z,98.73
2022-12-24T02:18:55.810Z,79.83
2022-12-24T02:24:09.919Z,93.97
2022-12-24T02:29:20.378Z,79.33
2022-12-24T02:34:40.872Z,85.67
2022-12-24T02:39:51.419Z,83.47
2022-12-24T02:45:06.622Z,73.77
2022-12-24T02:50:15.958Z,70.90
2022-12-24T02:55:22.396Z,62.27
2022-12-24T03:00:25.815Z,68.10
2022-12-24T03:05:49.815Z,68.83
2022-12-24T03:11:02.287Z,58.77
2022-12-24T03:16:06.582Z,64.80
2022-12-24T03:21:31.967Z,73.40
2022-12-24T03:26:38.813Z,81.17
2022-12-24T03:31:52.300Z,66.63
2022-12-24T03:36:59.389Z,76.10
2022-12-24T03:42:04.543Z,67.47
2022-12-24T03:47:10.851Z,72.63
2022-12-24T03:52:14.858Z,63.17
2022-12-24T03:57:16.734Z,78.10
2022-12-24T04:02:18.959Z,63.20
2022-12-24T04:07:25.466Z,82.83
2022-12-24T04:12:32.033Z,82.90
2022-12-24T04:17:33.789Z,79.77
2022-12-24T04:22:35.577Z,62.27
2022-12-24T04:27:39.605Z,72.70
2022-12-24T04:32:43.559Z,69.57
2022-12-24T04:37:45.224Z,75.27
2022-12-24T04:42:50.597Z,65.90
2022-12-24T04:47:52.356Z,66.80
2022-12-24T04:52:54.145Z,72.10
2022-12-24T04:57:55.837Z,63.70
2022-12-24T05:03:00.230Z,59.40
2022-12-24T05:08:04.613Z,63.33
2022-12-24T05:13:08.792Z,64.07
2022-12-24T05:18:13.460Z,59.43
2022-12-24T05:23:42.091Z,59.70
2022-12-24T05:28:43.760Z,70.60
2022-12-24T05:33:47.883Z,54.97
2022-12-24T05:38:49.818Z,82.03
2022-12-24T05:43:54.060Z,62.33
2022-12-24T05:48:55.837Z,68.27
2022-12-24T05:53:58.566Z,58.50
2022-12-24T05:59:02.777Z,64.40
2022-12-24T06:04:09.253Z,62.23
2022-12-24T06:09:11.107Z,53.40
2022-12-24T06:14:14.960Z,53.17
2022-12-24T06:19:16.748Z,54.90
2022-12-24T06:24:21.464Z,62.67
2022-12-24T06:29:27.305Z,56.67
2022-12-24T06:34:29.316Z,67.30
2022-12-24T06:39:31.054Z,56.13
2022-12-24T06:44:35.287Z,54.10
2022-12-24T06:49:39.236Z,75.23
2022-12-24T06:54:40.948Z,50.40
2022-12-24T06:59:42.613Z,49.07
2022-12-24T07:04:47.021Z,45.43
2022-12-24T07:09:51.051Z,59.83
2022-12-24T07:14:55.039Z,45.30
2022-12-24T07:19:59.297Z,45.27
2022-12-24T07:25:06.162Z,66.47
2022-12-24T07:30:08.669Z,48.63
2022-12-24T07:35:10.373Z,46.57
2022-12-24T07:40:17.348Z,74.93
2022-12-24T07:45:20.075Z,41.13
2022-12-24T07:50:21.759Z,46.20
2022-12-24T07:55:26.880Z,34.50
2022-12-24T08:00:28.715Z,33.93
2022-12-24T08:05:35.129Z,46.27
2022-12-24T08:10:39.764Z,37.03
2022-12-24T08:15:42.815Z,52.43
2022-12-24T08:20:48.069Z,36.70
2022-12-24T08:25:50.160Z,45.07
2022-12-24T08:30:54.240Z,44.80
2022-12-24T08:35:58.580Z,47.63
2022-12-24T08:41:00.274Z,45.10
2022-12-24T08:46:05.834Z,55.47
2022-12-24T08:51:12.161Z,72.30
2022-12-24T08:56:16.460Z,74.10
2022-12-24T09:01:21.395Z,66.13
2022-12-24T09:06:25.683Z,62.60
2022-12-24T09:11:29.699Z,60.30
2022-12-24T09:16:36.810Z,64.03
2022-12-24T09:21:41.553Z,71.03
2022-12-24T09:26:43.402Z,77.27
2022-12-24T09:31:47.868Z,81.10
2022-12-24T09:36:54.418Z,63.97
2022-12-24T09:42:16.281Z,58.53
2022-12-24T09:47:29.129Z,62.87
2022-12-24T09:52:39.314Z,57.47
2022-12-24T09:57:47.064Z,61.83
2022-12-24T10:02:48.870Z,58.93
2022-12-24T10:07:53.414Z,58.97
2022-12-24T10:13:56.237Z,52.97
2022-12-24T10:19:24.291Z,49.30
2022-12-24T10:24:34.798Z,65.17
2022-12-24T10:29:42.945Z,58.83
2022-12-24T10:34:48.328Z,49.97
2022-12-24T10:39:57.564Z,64.10
2022-12-24T10:45:04.150Z,58.33
2022-12-24T10:50:27.586Z,50.80
2022-12-24T10:55:29.928Z,50.87
2022-12-24T11:00:37.475Z,57.33
2022-12-24T11:05:45.216Z,48.93
2022-12-24T11:11:06.123Z,57.07
2022-12-24T11:16:31.119Z,62.43
2022-12-24T11:21:35.371Z,54.10
2022-12-24T11:26:38.135Z,49.33
2022-12-24T11:31:46.152Z,44.60
2022-12-24T11:36:47.949Z,51.80
2022-12-24T11:41:53.261Z,54.13
2022-12-24T11:46:59.053Z,42.93
2022-12-24T11:52:12.621Z,48.60
2022-12-24T11:57:16.470Z,55.80
2022-12-24T12:02:34.483Z,47.43
2022-12-24T12:07:38.254Z,49.37
2022-12-24T12:12:45.710Z,47.60
2022-12-24T12:18:13.948Z,53.63
2022-12-24T12:23:35.886Z,48.87
2022-12-24T12:28:45.610Z,44.43
2022-12-24T12:33:52.463Z,49.20
2022-12-24T12:38:54.221Z,48.00
2022-12-24T12:44:19.945Z,49.43
2022-12-24T12:49:23.877Z,42.93
2022-12-24T12:54:40.217Z,53.50
2022-12-24T12:59:56.921Z,52.33
2022-12-24T13:05:27.804Z,47.17
2022-12-24T13:11:09.394Z,50.97
2022-12-24T13:16:34.002Z,54.43
2022-12-24T13:21:36.916Z,56.67
2022-12-24T13:26:38.644Z,56.83
2022-12-24T13:31:40.397Z,55.00
2022-12-24T13:37:04.108Z,61.27
2022-12-24T13:42:08.321Z,61.13
2022-12-24T13:47:13.293Z,58.07
2022-12-24T13:52:14.921Z,47.93
2022-12-24T13:57:34.313Z,54.63
2022-12-24T14:02:43.295Z,41.80
2022-12-24T14:07:47.733Z,54.60
2022-12-24T14:12:55.257Z,50.03
2022-12-24T14:17:57.076Z,40.73
2022-12-24T14:23:01.587Z,43.63
2022-12-24T14:28:19.140Z,34.17
2022-12-24T14:33:34.483Z,35.30
2022-12-24T14:38:38.695Z,33.77
2022-12-24T14:43:46.068Z,42.70
2022-12-24T14:48:54.710Z,35.07
2022-12-24T14:54:27.083Z,30.73
2022-12-24T14:59:30.874Z,39.97
2022-12-24T15:04:33.383Z,31.27
2022-12-24T15:09:37.452Z,32.30
2022-12-24T15:14:45.084Z,36.67
2022-12-24T15:19:52.527Z,46.90
2022-12-24T15:25:00.189Z,30.27
2022-12-24T15:30:12.278Z,25.73
2022-12-24T15:35:35.979Z,28.30
2022-12-24T15:40:37.755Z,24.97
2022-12-24T15:45:53.547Z,24.53
2022-12-24T15:51:01.630Z,33.50
2022-12-24T15:56:36.705Z,30.57
2022-12-24T16:01:38.528Z,35.43
2022-12-24T16:07:01.935Z,26.00
2022-12-24T16:12:04.973Z,38.27
2022-12-24T16:17:23.814Z,35.07
2022-12-24T16:22:31.584Z,33.00
2022-12-24T16:27:38.378Z,28.57
2022-12-24T16:32:42.003Z,28.33
2022-12-24T16:37:43.711Z,25.17
2022-12-24T16:43:08.005Z,35.03
2022-12-24T16:48:19.196Z,31.23
2022-12-24T16:53:22.116Z,35.30
2022-12-24T16:58:24.005Z,25.10
2022-12-24T17:03:28.259Z,29.53
2022-12-24T17:08:29.992Z,32.90
2022-12-24T17:13:32.118Z,37.20
2022-12-24T17:18:35.454Z,30.87
2022-12-24T17:23:43.191Z,29.87
2022-12-24T17:28:47.075Z,34.10
2022-12-24T17:33:50.323Z,29.20
2022-12-24T17:38:55.004Z,29.87
2022-12-24T17:43:56.786Z,31.67
2022-12-24T17:48:58.511Z,27.97
2022-12-24T17:54:00.791Z,28.33
2022-12-24T17:59:03.872Z,23.73
2022-12-24T18:04:06.330Z,32.20
2022-12-24T18:09:08.369Z,24.50
2022-12-24T18:14:15.374Z,29.50
2022-12-24T18:19:22.677Z,30.57
2022-12-24T18:24:27.629Z,24.07
2022-12-24T18:29:29.340Z,27.73
2022-12-24T18:34:31.056Z,26.53
2022-12-24T18:39:32.755Z,22.80
2022-12-24T18:44:36.134Z,26.80
2022-12-24T18:49:38.656Z,30.53
2022-12-24T18:54:40.901Z,26.73
2022-12-24T18:59:42.597Z,26.83
2022-12-24T19:04:44.238Z,32.87
2022-12-24T19:09:48.446Z,28.43
2022-12-24T19:14:52.496Z,29.97
2022-12-24T19:19:56.310Z,30.93
2022-12-24T19:25:00.285Z,34.90
2022-12-24T19:30:02.667Z,37.50
2022-12-24T19:35:05.014Z,43.90
2022-12-24T19:40:10.722Z,43.77
2022-12-24T19:45:18.553Z,38.77
2022-12-24T19:50:23.324Z,56.37
2022-12-24T19:55:30.352Z,58.00
2022-12-24T20:00:35.218Z,43.57
2022-12-24T20:05:40.896Z,43.03
2022-12-24T20:10:45.632Z,41.60
2022-12-24T20:15:50.003Z,47.23
2022-12-24T20:20:54.865Z,45.63
2022-12-24T20:26:00.677Z,40.37
2022-12-24T20:31:19.602Z,40.87
2022-12-24T20:36:22.734Z,47.53
2022-12-24T20:41:30.645Z,40.13
2022-12-24T20:46:35.631Z,38.27
2022-12-24T20:51:40.202Z,42.67
2022-12-24T20:56:42.334Z,43.43
2022-12-24T21:01:48.878Z,43.60
2022-12-24T21:06:52.995Z,48.30
2022-12-24T21:11:54.669Z,51.47
2022-12-24T21:17:01.309Z,51.57
2022-12-24T21:22:08.356Z,46.80
2022-12-24T21:27:10.351Z,58.33
2022-12-24T21:32:13.883Z,57.23
2022-12-24T21:37:16.221Z,40.93
2022-12-24T21:42:20.397Z,51.97
2022-12-24T21:47:24.865Z,52.93
2022-12-24T21:52:26.627Z,64.27
2022-12-24T21:57:49.118Z,65.30
2022-12-24T22:02:55.118Z,52.17
2022-12-24T22:08:15.663Z,56.23
2022-12-24T22:13:18.796Z,63.63
2022-12-24T22:18:24.890Z,63.47
2022-12-24T22:23:28.955Z,55.00
2022-12-24T22:28:33.278Z,80.77
2022-12-24T22:33:36.667Z,61.07
2022-12-24T22:38:38.721Z,62.80
2022-12-24T22:43:42.111Z,74.53
2022-12-24T22:48:46.361Z,84.40
2022-12-24T22:53:48.595Z,84.63
2022-12-24T22:58:57.208Z,86.83
2022-12-24T23:04:01.460Z,71.50
2022-12-24T23:09:08.387Z,75.87
2022-12-24T23:14:49.344Z,84.77
2022-12-24T23:19:53.162Z,87.13
2022-12-24T23:24:54.864Z,78.83
2022-12-24T23:29:56.632Z,85.17
2022-12-24T23:34:58.330Z,84.80
2022-12-24T23:40:00.206Z,94.73
2022-12-24T23:45:04.973Z,92.77
2022-12-24T23:50:11.638Z,84.87
2022-12-24T23:55:13.363Z,101.83
